createdAt,value
2023-01-17T00:00:01.711Z,42.69
2023-01-17T00:00:54.326Z,42.82
2023-01-17T00:01:49.598Z,42.57
2023-01-17T00:02:42.279Z,42.69
2023-01-17T00:03:57.764Z,42.87
2023-01-17T00:05:05.393Z,42.48
2023-01-17T00:06:12.956Z,42.93
2023-01-17T00:07:20.514Z,42.58
2023-01-17T00:08:28.286Z,42.49
2023-01-17T00:09:35.876Z,42.83
2023-01-17T00:10:31.371Z,42.72
2023-01-17T00:11:23.923Z,42.40
2023-01-17T00:12:19.066Z,42.72
2023-01-17T00:13:11.637Z,42.89
2023-01-17T00:14:06.918Z,42.61
2023-01-17T00:15:02.201Z,43.01
2023-01-17T00:15:57.504Z,42.75
2023-01-17T00:16:50.132Z,43.03
2023-01-17T00:17:45.340Z,43.00
2023-01-17T00:18:37.903Z,42.63
2023-01-17T00:19:45.514Z,42.69
2023-01-17T00:20:53.104Z,42.97
2023-01-17T00:22:00.643Z,42.79
2023-01-17T00:23:08.210Z,42.69
2023-01-17T00:24:15.842Z,42.96
2023-01-17T00:25:35.203Z,42.89
2023-01-17T00:26:30.772Z,42.87
2023-01-17T00:27:23.098Z,43.04
2023-01-17T00:28:15.524Z,42.94
2023-01-17T00:29:07.857Z,42.99
2023-01-17T00:30:02.846Z,43.08
2023-01-17T00:30:55.232Z,43.23
2023-01-17T00:31:47.640Z,42.91
2023-01-17T00:32:40.034Z,43.13
2023-01-17T00:33:32.749Z,43.08
2023-01-17T00:34:25.075Z,42.65
2023-01-17T00:35:17.857Z,42.71
2023-01-17T00:36:10.936Z,42.74
2023-01-17T00:37:03.317Z,42.79
2023-01-17T00:38:03.497Z,43.09
2023-01-17T00:38:55.813Z,42.96
2023-01-17T00:39:48.154Z,42.65
2023-01-17T00:40:41.932Z,42.84
2023-01-17T00:41:34.309Z,42.63
2023-01-17T00:42:26.638Z,42.80
2023-01-17T00:43:36.895Z,42.65
2023-01-17T00:44:44.436Z,43.08
2023-01-17T00:45:54.603Z,42.90
2023-01-17T00:47:02.204Z,42.94
2023-01-17T00:48:09.758Z,42.87
2023-01-17T00:49:17.652Z,42.89
2023-01-17T00:50:25.739Z,42.76
2023-01-17T00:51:34.187Z,42.81
2023-01-17T00:52:41.753Z,42.88
2023-01-17T00:53:49.291Z,43.01
2023-01-17T00:54:56.877Z,42.95
2023-01-17T00:56:04.510Z,43.18
2023-01-17T00:57:12.564Z,42.79
2023-01-17T00:58:21.791Z,43.14
2023-01-17T00:59:29.349Z,42.82
2023-01-17T01:00:36.940Z,42.72
2023-01-17T01:01:47.635Z,42.90
2023-01-17T01:02:55.391Z,42.89
2023-01-17T01:04:02.948Z,42.97
2023-01-17T01:05:10.520Z,43.30
2023-01-17T01:06:19.851Z,43.22
2023-01-17T01:07:27.413Z,43.08
2023-01-17T01:08:37.459Z,42.93
2023-01-17T01:09:45.267Z,43.16
2023-01-17T01:10:52.827Z,43.11
2023-01-17T01:12:00.398Z,43.23
2023-01-17T01:13:08.099Z,43.06
2023-01-17T01:14:16.179Z,42.91
2023-01-17T01:15:24.587Z,43.15
2023-01-17T01:16:33.151Z,43.05
2023-01-17T01:17:43.428Z,43.02
2023-01-17T01:18:51.052Z,42.92
2023-01-17T01:19:58.656Z,43.38
2023-01-17T01:21:06.256Z,43.30
2023-01-17T01:22:13.783Z,42.96
2023-01-17T01:23:21.390Z,43.16
2023-01-17T01:24:28.942Z,43.36
2023-01-17T01:25:36.514Z,43.48
2023-01-17T01:26:44.060Z,43.07
2023-01-17T01:27:51.660Z,43.35
2023-01-17T01:28:59.260Z,43.39
2023-01-17T01:30:06.807Z,43.27
2023-01-17T01:31:15.065Z,43.26
2023-01-17T01:32:22.643Z,43.24
2023-01-17T01:33:20.624Z,43.08
2023-01-17T01:34:15.821Z,43.13
2023-01-17T01:35:08.717Z,43.17
2023-01-17T01:36:03.874Z,43.07
2023-01-17T01:36:56.543Z,43.45
2023-01-17T01:37:51.902Z,43.33
2023-01-17T01:38:44.457Z,43.20
2023-01-17T01:39:39.624Z,43.40
2023-01-17T01:40:32.179Z,43.09
2023-01-17T01:41:27.410Z,42.94
2023-01-17T01:42:19.966Z,43.20
2023-01-17T01:43:16.540Z,43.31
2023-01-17T01:44:41.929Z,43.10
2023-01-17T01:45:37.177Z,42.96
2023-01-17T01:46:32.061Z,42.91
2023-01-17T01:47:31.880Z,43.39
2023-01-17T01:48:35.680Z,43.27
2023-01-17T01:49:30.974Z,43.21
2023-01-17T01:50:24.027Z,43.50
2023-01-17T01:51:22.061Z,43.23
2023-01-17T01:52:15.268Z,43.08
2023-01-17T01:53:10.975Z,42.91
2023-01-17T01:54:08.091Z,43.36
2023-01-17T01:55:05.424Z,43.13
2023-01-17T01:55:58.446Z,43.16
2023-01-17T01:56:54.913Z,43.44
2023-01-17T01:57:49.812Z,43.35
2023-01-17T01:58:47.638Z,43.26
2023-01-17T01:59:42.612Z,43.16
2023-01-17T02:00:41.052Z,42.95
2023-01-17T02:01:34.059Z,43.25
2023-01-17T02:02:30.488Z,43.26
2023-01-17T02:03:29.620Z,43.13
2023-01-17T02:04:24.886Z,43.18
2023-01-17T02:05:18.916Z,43.37
2023-01-17T02:06:23.811Z,42.99
2023-01-17T02:07:20.714Z,43.46
2023-01-17T02:08:19.226Z,43.32
2023-01-17T02:09:12.912Z,43.41
2023-01-17T02:10:09.800Z,43.11
2023-01-17T02:11:02.812Z,43.46
2023-01-17T02:11:58.120Z,43.49
2023-01-17T02:12:52.610Z,43.26
2023-01-17T02:13:47.771Z,43.40
2023-01-17T02:14:40.364Z,43.32
2023-01-17T02:15:42.220Z,43.06
2023-01-17T02:16:52.501Z,43.46
2023-01-17T02:17:55.083Z,43.52
2023-01-17T02:18:57.655Z,43.47
2023-01-17T02:20:18.379Z,43.36
2023-01-17T02:21:22.356Z,43.51
2023-01-17T02:22:36.855Z,43.50
2023-01-17T02:24:25.298Z,43.50
2023-01-17T02:25:34.852Z,43.34
2023-01-17T02:26:51.049Z,43.59
2023-01-17T02:27:54.128Z,43.52
2023-01-17T02:29:05.891Z,43.48
2023-01-17T02:30:34.044Z,43.16
2023-01-17T02:31:28.378Z,43.30
2023-01-17T02:32:28.742Z,43.29
2023-01-17T02:33:26.253Z,43.60
2023-01-17T02:34:25.915Z,43.09
2023-01-17T02:35:28.157Z,43.47
2023-01-17T02:36:26.766Z,43.45
2023-01-17T02:37:24.215Z,43.47
2023-01-17T02:38:27.481Z,43.59
2023-01-17T02:39:23.137Z,43.37
2023-01-17T02:40:23.103Z,43.29
2023-01-17T02:41:19.891Z,43.32
2023-01-17T02:42:20.287Z,43.12
2023-01-17T02:43:15.601Z,43.39
2023-01-17T02:44:12.005Z,43.52
2023-01-17T02:45:07.993Z,43.44
2023-01-17T02:46:06.154Z,43.30
2023-01-17T02:46:59.398Z,43.32
2023-01-17T02:47:54.593Z,43.52
2023-01-17T02:48:47.974Z,43.60
2023-01-17T02:49:43.207Z,43.54
2023-01-17T02:50:50.338Z,43.54
2023-01-17T02:52:06.160Z,43.20
2023-01-17T02:53:12.830Z,43.01
2023-01-17T02:54:24.133Z,43.28
2023-01-17T02:55:22.703Z,43.29
2023-01-17T02:56:23.318Z,43.42
2023-01-17T02:57:26.690Z,43.45
2023-01-17T02:58:31.113Z,42.99
2023-01-17T02:59:36.103Z,43.06
2023-01-17T03:00:34.871Z,43.40
2023-01-17T03:01:35.168Z,43.42
2023-01-17T03:02:36.256Z,43.00
2023-01-17T03:03:32.463Z,43.28
2023-01-17T03:04:31.502Z,43.13
2023-01-17T03:05:27.966Z,43.01
2023-01-17T03:06:26.606Z,43.41
2023-01-17T03:07:22.775Z,42.93
2023-01-17T03:08:18.669Z,43.33
2023-01-17T03:09:11.357Z,43.18
2023-01-17T03:10:07.961Z,43.36
2023-01-17T03:11:00.581Z,43.07
2023-01-17T03:11:55.773Z,42.99
2023-01-17T03:12:48.380Z,42.91
2023-01-17T03:13:44.083Z,43.33
2023-01-17T03:14:36.699Z,43.28
2023-01-17T03:15:31.845Z,43.02
2023-01-17T03:16:26.422Z,43.44
2023-01-17T03:17:24.370Z,43.19
2023-01-17T03:18:17.140Z,43.50
2023-01-17T03:19:14.795Z,43.46
2023-01-17T03:20:08.671Z,43.48
2023-01-17T03:21:03.839Z,43.01
2023-01-17T03:21:56.471Z,42.98
2023-01-17T03:22:51.645Z,43.09
2023-01-17T03:23:44.454Z,43.32
2023-01-17T03:24:39.697Z,43.45
2023-01-17T03:25:32.403Z,43.33
2023-01-17T03:26:27.650Z,43.59
2023-01-17T03:27:20.214Z,43.42
2023-01-17T03:28:15.356Z,43.18
2023-01-17T03:29:07.906Z,43.09
2023-01-17T03:30:03.096Z,43.49
2023-01-17T03:30:55.732Z,43.42
2023-01-17T03:31:50.929Z,43.40
2023-01-17T03:32:46.107Z,43.25
2023-01-17T03:33:41.234Z,43.54
2023-01-17T03:34:33.831Z,43.44
2023-01-17T03:35:29.061Z,43.31
2023-01-17T03:36:21.650Z,43.22
2023-01-17T03:37:17.007Z,43.45
2023-01-17T03:38:09.604Z,43.23
2023-01-17T03:39:04.777Z,43.58
2023-01-17T03:39:57.360Z,43.13
2023-01-17T03:40:52.510Z,43.25
2023-01-17T03:41:45.118Z,43.53
2023-01-17T03:42:40.273Z,43.42
2023-01-17T03:43:32.935Z,43.43
2023-01-17T03:44:28.103Z,43.55
2023-01-17T03:45:20.676Z,43.53
2023-01-17T03:46:21.975Z,43.52
2023-01-17T03:47:14.579Z,43.30
2023-01-17T03:48:12.930Z,43.36
2023-01-17T03:49:05.487Z,43.40
2023-01-17T03:50:00.646Z,43.40
2023-01-17T03:50:53.277Z,43.72
2023-01-17T03:51:48.438Z,43.21
2023-01-17T03:52:40.987Z,43.44
2023-01-17T03:53:36.166Z,43.56
2023-01-17T03:54:28.710Z,43.23
2023-01-17T03:55:23.857Z,43.56
2023-01-17T03:56:16.506Z,43.30
2023-01-17T03:57:12.090Z,43.43
2023-01-17T03:58:04.647Z,43.60
2023-01-17T03:58:59.938Z,43.20
2023-01-17T03:59:52.502Z,43.62
2023-01-17T04:00:47.816Z,43.56
2023-01-17T04:01:40.572Z,43.57
2023-01-17T04:02:35.844Z,43.52
2023-01-17T04:03:31.094Z,43.16
2023-01-17T04:04:26.257Z,43.15
2023-01-17T04:05:18.800Z,43.23
2023-01-17T04:06:13.993Z,43.28
2023-01-17T04:07:06.559Z,43.29
2023-01-17T04:08:01.719Z,43.14
2023-01-17T04:08:54.370Z,43.45
2023-01-17T04:09:49.545Z,43.50
2023-01-17T04:10:42.105Z,43.47
2023-01-17T04:11:37.415Z,43.32
2023-01-17T04:12:29.974Z,43.15
2023-01-17T04:13:25.151Z,43.54
2023-01-17T04:14:17.995Z,43.49
2023-01-17T04:15:14.102Z,43.34
2023-01-17T04:16:08.754Z,43.32
2023-01-17T04:17:04.232Z,43.40
2023-01-17T04:17:57.146Z,43.30
2023-01-17T04:18:54.929Z,43.42
2023-01-17T04:19:47.739Z,43.23
2023-01-17T04:20:43.738Z,43.37
2023-01-17T04:21:36.290Z,43.47
2023-01-17T04:22:31.707Z,43.58
2023-01-17T04:23:24.256Z,43.11
2023-01-17T04:24:19.443Z,43.47
2023-01-17T04:25:12.170Z,43.28
2023-01-17T04:26:07.634Z,43.08
2023-01-17T04:27:00.391Z,43.26
2023-01-17T04:27:55.627Z,43.42
2023-01-17T04:28:48.498Z,43.11
2023-01-17T04:29:45.934Z,43.16
2023-01-17T04:30:39.460Z,43.11
2023-01-17T04:31:34.686Z,43.16
2023-01-17T04:32:29.385Z,43.52
2023-01-17T04:33:24.554Z,43.42
2023-01-17T04:34:19.695Z,43.12
2023-01-17T04:35:14.902Z,43.59
2023-01-17T04:36:10.597Z,43.24
2023-01-17T04:37:05.747Z,43.63
2023-01-17T04:37:58.298Z,43.23
2023-01-17T04:38:53.457Z,43.71
2023-01-17T04:39:46.061Z,43.72
2023-01-17T04:40:41.237Z,43.25
2023-01-17T04:41:33.987Z,43.43
2023-01-17T04:42:29.142Z,43.30
2023-01-17T04:43:21.746Z,43.45
2023-01-17T04:44:16.922Z,43.37
2023-01-17T04:45:10.283Z,43.59
2023-01-17T04:46:10.078Z,43.68
2023-01-17T04:47:03.447Z,43.58
2023-01-17T04:47:58.622Z,43.65
2023-01-17T04:48:51.290Z,43.45
2023-01-17T04:49:49.071Z,43.69
2023-01-17T04:50:41.663Z,43.58
2023-01-17T04:51:36.821Z,43.44
2023-01-17T04:52:29.417Z,43.63
2023-01-17T04:53:24.654Z,43.42
2023-01-17T04:54:17.293Z,43.58
2023-01-17T04:55:12.844Z,43.67
2023-01-17T04:56:05.892Z,43.26
2023-01-17T04:57:01.059Z,43.23
2023-01-17T04:57:53.603Z,43.30
2023-01-17T04:58:48.845Z,43.28
2023-01-17T04:59:41.523Z,43.25
2023-01-17T05:00:36.692Z,43.32
2023-01-17T05:01:29.339Z,43.62
2023-01-17T05:02:24.840Z,43.32
2023-01-17T05:03:17.710Z,43.64
2023-01-17T05:04:12.877Z,43.66
2023-01-17T05:05:09.326Z,43.18
2023-01-17T05:06:04.689Z,43.28
2023-01-17T05:06:57.248Z,43.35
2023-01-17T05:07:58.695Z,43.22
2023-01-17T05:08:51.316Z,43.52
2023-01-17T05:09:46.590Z,43.25
2023-01-17T05:10:39.243Z,43.72
2023-01-17T05:11:34.430Z,43.64
2023-01-17T05:12:27.154Z,43.44
2023-01-17T05:13:22.579Z,43.18
2023-01-17T05:14:15.111Z,43.65
2023-01-17T05:15:11.142Z,43.36
2023-01-17T05:16:03.999Z,43.49
2023-01-17T05:17:00.031Z,43.56
2023-01-17T05:17:53.004Z,43.49
2023-01-17T05:18:48.198Z,43.41
2023-01-17T05:19:40.814Z,43.49
2023-01-17T05:20:39.389Z,43.23
2023-01-17T05:21:32.412Z,43.09
2023-01-17T05:22:27.546Z,43.47
2023-01-17T05:23:20.177Z,43.53
2023-01-17T05:24:15.347Z,43.43
2023-01-17T05:25:08.817Z,43.11
2023-01-17T05:26:03.994Z,43.46
2023-01-17T05:26:56.582Z,43.50
2023-01-17T05:27:51.951Z,43.58
2023-01-17T05:28:45.032Z,43.40
2023-01-17T05:29:40.211Z,43.49
2023-01-17T05:30:33.211Z,43.19
2023-01-17T05:31:28.365Z,43.51
2023-01-17T05:32:20.936Z,43.07
2023-01-17T05:33:16.103Z,43.38
2023-01-17T05:34:08.861Z,43.04
2023-01-17T05:35:04.013Z,43.32
2023-01-17T05:35:59.202Z,43.51
2023-01-17T05:36:54.499Z,43.41
2023-01-17T05:37:49.240Z,43.22
2023-01-17T05:38:44.498Z,43.20
2023-01-17T05:39:37.081Z,43.13
2023-01-17T05:40:34.114Z,43.32
2023-01-17T05:41:26.719Z,43.20
2023-01-17T05:42:21.871Z,43.62
2023-01-17T05:43:14.440Z,43.44
2023-01-17T05:44:09.736Z,43.70
2023-01-17T05:45:02.368Z,43.81
2023-01-17T05:45:57.868Z,43.93
2023-01-17T05:46:50.452Z,43.42
2023-01-17T05:47:46.380Z,43.74
2023-01-17T05:48:38.974Z,43.47
2023-01-17T05:49:34.415Z,43.71
2023-01-17T05:50:30.863Z,43.88
2023-01-17T05:51:29.456Z,43.63
2023-01-17T05:52:22.006Z,43.85
2023-01-17T05:53:19.253Z,43.72
2023-01-17T05:54:11.823Z,43.46
2023-01-17T05:55:07.890Z,43.48
2023-01-17T05:56:00.498Z,43.58
2023-01-17T05:56:55.646Z,44.96
2023-01-17T05:57:48.352Z,44.76
2023-01-17T05:58:43.642Z,44.67
2023-01-17T05:59:37.589Z,44.96
2023-01-17T06:00:33.513Z,45.53
2023-01-17T06:01:26.187Z,45.91
2023-01-17T06:02:21.394Z,45.82
2023-01-17T06:03:14.306Z,46.09
2023-01-17T06:04:09.455Z,45.88
2023-01-17T06:05:03.541Z,45.71
2023-01-17T06:05:58.842Z,46.02
2023-01-17T06:06:54.009Z,45.88
2023-01-17T06:07:49.529Z,45.74
2023-01-17T06:08:42.089Z,45.30
2023-01-17T06:09:37.223Z,45.53
2023-01-17T06:10:30.102Z,45.33
2023-01-17T06:11:25.305Z,45.33
2023-01-17T06:12:17.909Z,45.16
2023-01-17T06:13:16.784Z,45.26
2023-01-17T06:14:09.487Z,45.25
2023-01-17T06:15:04.648Z,45.12
2023-01-17T06:16:02.891Z,45.44
2023-01-17T06:16:58.174Z,45.01
2023-01-17T06:17:50.741Z,45.56
2023-01-17T06:18:45.891Z,45.30
2023-01-17T06:19:38.503Z,45.45
2023-01-17T06:20:34.096Z,45.42
2023-01-17T06:21:29.265Z,44.99
2023-01-17T06:22:24.439Z,44.99
2023-01-17T06:23:19.593Z,45.14
2023-01-17T06:24:12.470Z,44.76
2023-01-17T06:25:08.413Z,44.51
2023-01-17T06:26:03.425Z,44.81
2023-01-17T06:26:58.752Z,44.67
2023-01-17T06:27:52.002Z,44.65
2023-01-17T06:28:48.106Z,44.67
2023-01-17T06:29:40.641Z,44.16
2023-01-17T06:30:35.905Z,44.27
2023-01-17T06:31:28.464Z,44.03
2023-01-17T06:32:23.732Z,43.93
2023-01-17T06:33:16.870Z,43.63
2023-01-17T06:34:12.047Z,43.69
2023-01-17T06:35:05.111Z,43.42
2023-01-17T06:36:00.314Z,43.73
2023-01-17T06:36:52.879Z,43.66
2023-01-17T06:37:55.399Z,43.64
2023-01-17T06:38:50.437Z,43.55
2023-01-17T06:39:45.586Z,43.54
2023-01-17T06:40:38.145Z,43.45
2023-01-17T06:41:33.557Z,43.04
2023-01-17T06:42:26.117Z,43.08
2023-01-17T06:43:21.286Z,43.32
2023-01-17T06:44:13.873Z,42.84
2023-01-17T06:45:10.533Z,43.20
2023-01-17T06:46:03.116Z,43.29
2023-01-17T06:46:58.462Z,43.23
2023-01-17T06:47:51.210Z,42.82
2023-01-17T06:48:48.385Z,43.16
2023-01-17T06:49:40.952Z,42.79
2023-01-17T06:50:36.882Z,42.84
2023-01-17T06:51:29.472Z,42.95
2023-01-17T06:52:24.615Z,42.81
2023-01-17T06:53:19.865Z,42.87
2023-01-17T06:54:15.221Z,43.01
2023-01-17T06:55:09.529Z,43.04
2023-01-17T06:56:04.836Z,43.01
2023-01-17T06:56:57.438Z,42.62
2023-01-17T06:57:52.656Z,43.03
2023-01-17T06:58:47.824Z,42.99
2023-01-17T06:59:40.418Z,42.99
2023-01-17T07:00:38.263Z,42.82
2023-01-17T07:01:32.918Z,42.96
2023-01-17T07:02:28.270Z,42.98
2023-01-17T07:03:22.412Z,42.71
2023-01-17T07:04:17.586Z,42.70
2023-01-17T07:05:10.572Z,42.72
2023-01-17T07:06:06.439Z,43.01
2023-01-17T07:07:01.620Z,42.61
2023-01-17T07:07:54.333Z,42.50
2023-01-17T07:08:52.128Z,42.82
2023-01-17T07:09:44.701Z,42.61
2023-01-17T07:10:39.867Z,42.89
2023-01-17T07:11:32.550Z,42.64
2023-01-17T07:12:27.694Z,42.37
2023-01-17T07:13:20.257Z,42.48
2023-01-17T07:14:16.789Z,42.38
2023-01-17T07:15:11.117Z,42.46
2023-01-17T07:16:07.098Z,42.72
2023-01-17T07:16:59.820Z,42.67
2023-01-17T07:17:55.012Z,42.75
2023-01-17T07:18:47.589Z,42.63
2023-01-17T07:19:43.154Z,42.29
2023-01-17T07:20:35.746Z,42.70
2023-01-17T07:21:31.043Z,42.65
2023-01-17T07:22:23.631Z,42.33
2023-01-17T07:23:18.804Z,42.41
2023-01-17T07:24:13.987Z,42.41
2023-01-17T07:25:10.263Z,42.39
2023-01-17T07:26:03.080Z,42.53
2023-01-17T07:26:58.255Z,42.56
2023-01-17T07:27:53.853Z,42.81
2023-01-17T07:28:49.019Z,42.93
2023-01-17T07:29:41.612Z,42.53
2023-01-17T07:30:36.951Z,42.75
2023-01-17T07:31:29.578Z,42.73
2023-01-17T07:32:26.071Z,43.00
2023-01-17T07:33:19.067Z,42.98
2023-01-17T07:34:14.279Z,42.50
2023-01-17T07:35:07.872Z,42.90
2023-01-17T07:36:07.582Z,42.99
2023-01-17T07:37:00.244Z,42.99
2023-01-17T07:37:56.231Z,42.67
2023-01-17T07:38:48.785Z,43.07
2023-01-17T07:39:46.547Z,42.82
2023-01-17T07:40:42.513Z,42.80
2023-01-17T07:41:41.391Z,42.84
2023-01-17T07:42:36.661Z,43.23
2023-01-17T07:43:29.367Z,42.79
2023-01-17T07:44:24.566Z,43.17
2023-01-17T07:45:17.716Z,42.93
2023-01-17T07:46:15.303Z,43.28
2023-01-17T07:47:08.051Z,43.12
2023-01-17T07:48:03.208Z,43.35
2023-01-17T07:48:55.820Z,42.95
2023-01-17T07:49:51.016Z,43.13
2023-01-17T07:50:43.742Z,42.87
2023-01-17T07:51:38.927Z,43.32
2023-01-17T07:52:31.820Z,43.20
2023-01-17T07:53:28.661Z,43.02
2023-01-17T07:54:21.242Z,42.88
2023-01-17T07:55:19.363Z,42.96
2023-01-17T07:56:11.926Z,43.19
2023-01-17T07:57:07.237Z,43.17
2023-01-17T07:58:01.746Z,43.24
2023-01-17T07:58:58.068Z,42.96
2023-01-17T07:59:51.095Z,42.97
2023-01-17T08:00:46.827Z,43.34
2023-01-17T08:01:39.573Z,42.86
2023-01-17T08:02:34.780Z,43.24
2023-01-17T08:03:32.379Z,43.09
2023-01-17T08:04:34.765Z,43.28
2023-01-17T08:05:28.200Z,42.89
2023-01-17T08:06:25.213Z,43.25
2023-01-17T08:07:17.794Z,42.96
2023-01-17T08:08:12.963Z,43.24
2023-01-17T08:09:05.749Z,42.89
2023-01-17T08:10:01.602Z,43.13
2023-01-17T08:10:56.773Z,43.06
2023-01-17T08:11:51.997Z,42.99
2023-01-17T08:12:45.389Z,42.73
2023-01-17T08:13:41.840Z,42.72
2023-01-17T08:14:34.440Z,42.77
2023-01-17T08:15:29.636Z,43.23
2023-01-17T08:16:24.892Z,43.01
2023-01-17T08:17:18.295Z,43.06
2023-01-17T08:18:13.486Z,42.98
2023-01-17T08:19:06.039Z,43.04
2023-01-17T08:20:01.174Z,43.14
2023-01-17T08:20:54.318Z,42.77
2023-01-17T08:21:49.467Z,43.10
2023-01-17T08:22:42.175Z,43.04
2023-01-17T08:23:37.345Z,43.32
2023-01-17T08:24:29.891Z,43.16
2023-01-17T08:25:26.004Z,42.94
2023-01-17T08:26:22.475Z,43.16
2023-01-17T08:27:18.068Z,43.06
2023-01-17T08:28:13.280Z,43.11
2023-01-17T08:29:05.955Z,43.20
2023-01-17T08:30:01.123Z,43.29
2023-01-17T08:30:53.816Z,43.22
2023-01-17T08:31:49.051Z,43.11
2023-01-17T08:32:41.747Z,43.06
2023-01-17T08:33:37.003Z,42.77
2023-01-17T08:34:29.791Z,43.08
2023-01-17T08:35:25.299Z,42.96
2023-01-17T08:36:18.199Z,43.09
2023-01-17T08:37:13.355Z,42.84
2023-01-17T08:38:06.168Z,43.01
2023-01-17T08:39:01.555Z,42.97
2023-01-17T08:39:56.741Z,42.90
2023-01-17T08:40:49.514Z,42.86
2023-01-17T08:41:47.297Z,42.89
2023-01-17T08:42:41.061Z,42.84
2023-01-17T08:43:36.261Z,43.23
2023-01-17T08:44:28.844Z,43.02
2023-01-17T08:45:24.026Z,43.27
2023-01-17T08:46:17.089Z,43.16
2023-01-17T08:47:12.809Z,43.15
2023-01-17T08:48:05.629Z,43.09
2023-01-17T08:49:02.889Z,43.18
2023-01-17T08:49:55.551Z,43.28
2023-01-17T08:50:50.711Z,42.92
2023-01-17T08:51:43.262Z,42.84
2023-01-17T08:52:38.930Z,42.86
2023-01-17T08:53:34.149Z,42.94
2023-01-17T08:54:26.829Z,43.23
2023-01-17T08:55:22.532Z,43.13
2023-01-17T08:56:15.085Z,43.10
2023-01-17T08:57:12.930Z,43.15
2023-01-17T08:58:05.544Z,43.34
2023-01-17T08:59:00.703Z,43.35
2023-01-17T08:59:53.292Z,43.13
2023-01-17T09:00:48.576Z,43.22
2023-01-17T09:01:42.139Z,43.07
2023-01-17T09:02:37.493Z,43.19
2023-01-17T09:03:30.439Z,43.04
2023-01-17T09:04:25.714Z,43.42
2023-01-17T09:05:18.323Z,43.25
2023-01-17T09:06:15.166Z,43.43
2023-01-17T09:07:07.716Z,43.58
2023-01-17T09:08:02.884Z,43.52
2023-01-17T09:08:55.510Z,43.35
2023-01-17T09:09:52.738Z,43.18
2023-01-17T09:10:45.327Z,43.48
2023-01-17T09:11:40.653Z,43.71
2023-01-17T09:12:36.947Z,43.56
2023-01-17T09:13:32.110Z,43.68
2023-01-17T09:14:24.722Z,43.24
2023-01-17T09:15:20.599Z,43.42
2023-01-17T09:16:13.217Z,43.29
2023-01-17T09:17:08.568Z,43.32
2023-01-17T09:18:01.700Z,43.73
2023-01-17T09:18:57.114Z,43.12
2023-01-17T09:19:49.691Z,43.35
2023-01-17T09:20:44.863Z,43.61
2023-01-17T09:21:37.452Z,43.60
2023-01-17T09:22:32.607Z,43.85
2023-01-17T09:23:29.227Z,43.52
2023-01-17T09:24:21.833Z,43.51
2023-01-17T09:25:17.084Z,43.43
2023-01-17T09:26:17.876Z,43.30
2023-01-17T09:27:13.022Z,43.43
2023-01-17T09:28:08.208Z,43.42
2023-01-17T09:29:03.403Z,43.11
2023-01-17T09:29:55.987Z,42.98
2023-01-17T09:30:51.639Z,43.29
2023-01-17T09:31:44.836Z,43.03
2023-01-17T09:32:40.008Z,43.43
2023-01-17T09:33:32.552Z,43.01
2023-01-17T09:34:27.751Z,43.14
2023-01-17T09:35:20.490Z,43.08
2023-01-17T09:36:15.653Z,43.14
2023-01-17T09:37:08.201Z,43.04
2023-01-17T09:38:03.386Z,43.35
2023-01-17T09:38:57.334Z,43.12
2023-01-17T09:39:52.503Z,43.25
2023-01-17T09:40:47.020Z,43.09
2023-01-17T09:41:49.196Z,43.20
2023-01-17T09:42:41.854Z,43.42
2023-01-17T09:43:44.075Z,43.14
2023-01-17T09:44:43.797Z,43.20
2023-01-17T09:45:36.608Z,43.18
2023-01-17T09:46:34.559Z,43.37
2023-01-17T09:47:36.138Z,43.10
2023-01-17T09:48:42.389Z,43.49
2023-01-17T09:49:41.837Z,43.33
2023-01-17T09:50:45.030Z,43.25
2023-01-17T09:51:37.829Z,43.30
2023-01-17T09:52:33.983Z,43.16
2023-01-17T09:53:26.927Z,43.16
2023-01-17T09:54:25.044Z,43.31
2023-01-17T09:55:18.144Z,43.23
2023-01-17T09:56:15.500Z,43.21
2023-01-17T09:57:33.118Z,43.35
2023-01-17T09:58:32.367Z,43.27
2023-01-17T09:59:35.833Z,43.18
2023-01-17T10:00:48.923Z,43.20
2023-01-17T10:01:48.419Z,43.45
2023-01-17T10:02:53.727Z,43.28
2023-01-17T10:03:56.922Z,43.14
2023-01-17T10:05:05.352Z,42.80
2023-01-17T10:06:10.562Z,42.96
2023-01-17T10:07:14.500Z,42.87
2023-01-17T10:08:16.144Z,42.82
2023-01-17T10:09:26.156Z,42.90
2023-01-17T10:10:27.630Z,43.23
2023-01-17T10:11:36.756Z,43.78
2023-01-17T10:12:33.826Z,44.35
2023-01-17T10:13:36.459Z,43.93
2023-01-17T10:14:45.572Z,43.10
2023-01-17T10:15:53.125Z,43.08
2023-01-17T10:16:52.128Z,42.26
2023-01-17T10:17:53.588Z,42.09
2023-01-17T10:19:07.903Z,41.22
2023-01-17T10:20:10.838Z,40.93
2023-01-17T10:21:06.304Z,40.61
2023-01-17T10:22:10.306Z,40.62
2023-01-17T10:23:22.126Z,40.18
2023-01-17T10:24:52.707Z,39.90
2023-01-17T10:25:52.487Z,39.64
2023-01-17T10:26:49.691Z,39.53
2023-01-17T10:27:45.819Z,39.34
2023-01-17T10:28:46.868Z,38.99
2023-01-17T10:29:42.166Z,39.00
2023-01-17T10:30:40.376Z,38.61
2023-01-17T10:31:41.323Z,38.49
2023-01-17T10:32:34.283Z,38.39
2023-01-17T10:33:32.800Z,38.73
2023-01-17T10:34:29.890Z,38.46
2023-01-17T10:35:26.574Z,37.61
2023-01-17T10:36:21.378Z,37.90
2023-01-17T10:37:20.959Z,37.98
2023-01-17T10:38:15.295Z,38.97
2023-01-17T10:39:17.730Z,38.72
2023-01-17T10:40:18.240Z,39.07
2023-01-17T10:41:18.650Z,38.97
2023-01-17T10:42:17.214Z,39.17
2023-01-17T10:43:18.466Z,38.87
2023-01-17T10:44:20.249Z,38.85
2023-01-17T10:45:25.733Z,38.71
2023-01-17T10:46:28.533Z,38.48
2023-01-17T10:47:22.714Z,39.05
2023-01-17T10:48:22.412Z,38.75
2023-01-17T10:49:20.902Z,39.04
2023-01-17T10:50:13.575Z,38.53
2023-01-17T10:51:32.639Z,38.87
2023-01-17T10:52:37.646Z,38.86
2023-01-17T10:53:38.313Z,38.96
2023-01-17T10:54:54.298Z,38.91
2023-01-17T10:55:53.412Z,38.65
2023-01-17T10:56:46.069Z,38.49
2023-01-17T10:57:43.217Z,38.49
2023-01-17T10:58:35.843Z,38.51
2023-01-17T10:59:33.662Z,38.64
2023-01-17T11:00:40.278Z,38.74
2023-01-17T11:01:35.719Z,38.96
2023-01-17T11:02:34.330Z,38.75
2023-01-17T11:03:27.921Z,38.81
2023-01-17T11:04:24.518Z,38.45
2023-01-17T11:05:22.209Z,38.55
2023-01-17T11:06:18.883Z,38.65
2023-01-17T11:07:13.982Z,38.95
2023-01-17T11:08:10.978Z,38.46
2023-01-17T11:09:07.031Z,38.51
2023-01-17T11:10:02.313Z,38.73
2023-01-17T11:10:55.327Z,38.41
2023-01-17T11:11:53.483Z,38.48
2023-01-17T11:12:47.433Z,38.60
2023-01-17T11:13:42.666Z,38.38
2023-01-17T11:14:36.180Z,38.70
2023-01-17T11:15:34.090Z,38.71
2023-01-17T11:16:29.742Z,38.58
2023-01-17T11:17:25.057Z,38.82
2023-01-17T11:18:19.509Z,38.56
2023-01-17T11:19:20.428Z,38.42
2023-01-17T11:20:22.863Z,38.77
2023-01-17T11:21:16.971Z,38.24
2023-01-17T11:22:17.121Z,38.52
2023-01-17T11:23:15.168Z,38.50
2023-01-17T11:24:15.403Z,38.72
2023-01-17T11:25:23.136Z,38.36
2023-01-17T11:26:24.348Z,38.68
2023-01-17T11:27:27.309Z,38.56
2023-01-17T11:28:22.993Z,38.45
2023-01-17T11:29:26.435Z,38.26
2023-01-17T11:30:20.785Z,38.21
2023-01-17T11:31:31.022Z,38.56
2023-01-17T11:32:32.092Z,38.33
2023-01-17T11:33:45.485Z,38.37
2023-01-17T11:34:38.565Z,38.19
2023-01-17T11:35:34.418Z,38.58
2023-01-17T11:36:28.617Z,38.43
2023-01-17T11:37:26.322Z,38.29
2023-01-17T11:38:20.233Z,38.72
2023-01-17T11:39:31.452Z,38.54
2023-01-17T11:40:29.483Z,38.56
2023-01-17T11:41:25.286Z,38.50
2023-01-17T11:42:37.234Z,38.35
2023-01-17T11:43:33.458Z,38.46
2023-01-17T11:44:28.227Z,38.14
2023-01-17T11:45:27.924Z,38.41
2023-01-17T11:46:23.933Z,38.61
2023-01-17T11:47:19.461Z,38.50
2023-01-17T11:48:17.330Z,38.14
2023-01-17T11:49:25.640Z,38.43
2023-01-17T11:50:25.368Z,38.06
2023-01-17T11:51:27.661Z,37.93
2023-01-17T11:52:24.028Z,37.83
2023-01-17T11:53:25.763Z,37.93
2023-01-17T11:54:23.218Z,37.91
2023-01-17T11:55:16.396Z,37.85
2023-01-17T11:56:12.910Z,38.00
2023-01-17T11:57:10.068Z,38.22
2023-01-17T11:58:02.663Z,38.10
2023-01-17T11:59:13.264Z,38.32
2023-01-17T12:00:17.417Z,38.18
2023-01-17T12:01:27.258Z,37.83
2023-01-17T12:02:41.036Z,37.88
2023-01-17T12:03:51.561Z,37.93
2023-01-17T12:04:48.551Z,38.16
2023-01-17T12:05:51.522Z,38.14
2023-01-17T12:06:58.110Z,38.10
2023-01-17T12:07:59.813Z,37.58
2023-01-17T12:09:04.340Z,37.75
2023-01-17T12:10:06.767Z,37.50
2023-01-17T12:11:03.831Z,37.22
2023-01-17T12:12:17.497Z,37.49
2023-01-17T12:13:31.956Z,37.15
2023-01-17T12:14:36.339Z,37.10
2023-01-17T12:15:48.519Z,37.09
2023-01-17T12:16:53.857Z,37.22
2023-01-17T12:18:05.905Z,36.86
2023-01-17T12:19:06.587Z,36.93